Time;durP1;ratioP1;P1;durP2;ratioP2;P2;SDS_P1;SDS_P2;PMS_P1;PMS_P2;Temp;Humidity;BMP_temperature;BMP_pressure;BME280_temperature;BME280_humidity;BME280_pressure;Samples;Min_cycle;Max_cycle;Signal;HPM_P1;HPM_P2
2023/02/27 00:01:25;;;;;;;8.25;2.70;;;0.80;99.90;;;;;;5022329;28;20373;-76
2023/02/27 00:03:54;;;;;;;7.07;2.70;;;1.20;99.90;;;;;;5035965;28;20038;-76
2023/02/27 00:06:20;;;;;;;7.43;2.85;;;1.90;99.90;;;;;;5050879;28;20378;-76
2023/02/27 00:08:45;;;;;;;7.25;2.63;;;0.60;99.90;;;;;;5045371;28;20048;-76
2023/02/27 00:11:11;;;;;;;8.10;2.45;;;0.70;99.90;;;;;;5068274;28;20051;-77
2023/02/27 00:13:37;;;;;;;6.03;2.60;;;2.00;99.90;;;;;;5058642;28;20037;-76
2023/02/27 00:16:03;;;;;;;6.15;2.35;;;0.70;99.90;;;;;;5033263;28;20095;-77
2023/02/27 00:18:29;;;;;;;5.40;2.40;;;0.70;99.90;;;;;;5032022;28;20083;-77
2023/02/27 00:20:55;;;;;;;6.78;2.45;;;0.60;99.90;;;;;;5044727;28;20041;-77
2023/02/27 00:23:20;;;;;;;7.20;2.92;;;0.60;99.90;;;;;;5033683;28;20037;-78
2023/02/27 00:25:46;;;;;;;9.43;2.90;;;0.70;99.90;;;;;;5061241;28;20402;-76
2023/02/27 00:28:15;;;;;;;8.95;3.05;;;0.60;99.90;;;;;;5045929;28;20511;-77
2023/02/27 00:30:44;;;;;;;6.70;2.70;;;0.60;99.90;;;;;;5030637;28;20037;-76
2023/02/27 00:33:09;;;;;;;8.48;3.00;;;0.60;99.90;;;;;;5026298;28;20049;-76
2023/02/27 00:35:44;;;;;;;6.78;2.83;;;0.50;99.90;;;;;;5040513;28;20041;-76
2023/02/27 00:38:10;;;;;;;7.97;3.20;;;0.50;99.90;;;;;;5038942;28;20048;-76
2023/02/27 00:40:35;;;;;;;7.90;2.65;;;0.50;99.90;;;;;;5068781;28;20492;-76
2023/02/27 00:43:02;;;;;;;7.38;2.65;;;0.40;99.90;;;;;;5065352;28;20044;-76
2023/02/27 00:45:30;;;;;;;7.30;2.60;;;0.40;99.90;;;;;;5036423;28;20451;-76
2023/02/27 00:47:56;;;;;;;6.47;2.40;;;0.40;99.90;;;;;;5034937;28;20599;-76
2023/02/27 00:50:21;;;;;;;8.82;2.55;;;0.40;99.90;;;;;;5036631;28;20044;-77
2023/02/27 00:52:47;;;;;;;5.32;2.47;;;0.30;99.90;;;;;;5060968;28;20048;-76
2023/02/27 00:55:13;;;;;;;7.63;2.33;;;0.30;99.90;;;;;;5038040;28;20099;-77
2023/02/27 00:57:39;;;;;;;7.85;2.60;;;0.30;99.90;;;;;;5024403;28;20036;-76
2023/02/27 01:00:07;;;;;;;7.22;3.17;;;0.30;99.90;;;;;;5051737;28;20037;-75
2023/02/27 01:02:33;;;;;;;9.35;3.03;;;0.20;99.90;;;;;;5036412;28;20040;-76
2023/02/27 01:04:59;;;;;;;8.38;2.45;;;0.20;99.90;;;;;;5028176;28;20044;-76
2023/02/27 01:07:25;;;;;;;6.78;2.70;;;0.10;99.90;;;;;;5026614;28;20405;-76
2023/02/27 01:09:50;;;;;;;7.35;2.97;;;0.10;99.90;;;;;;5058646;28;20098;-76
2023/02/27 01:12:16;;;;;;;8.95;2.53;;;0.10;99.90;;;;;;5046635;28;20465;-76
2023/02/27 01:14:43;;;;;;;7.45;2.85;;;0.00;99.90;;;;;;5052255;28;20116;-78
2023/02/27 01:17:09;;;;;;;6.80;2.65;;;0.00;99.90;;;;;;5038454;28;20120;-76
2023/02/27 01:19:34;;;;;;;5.10;2.55;;;-0.10;99.90;;;;;;5038262;28;20120;-77
2023/02/27 01:22:00;;;;;;;5.55;2.70;;;-0.10;99.90;;;;;;5036785;28;20028;-77
2023/02/27 01:24:26;;;;;;;8.43;2.90;;;-0.10;99.90;;;;;;5032073;28;20501;-76
2023/02/27 01:26:52;;;;;;;8.43;2.90;;;-0.10;99.90;;;;;;5039898;28;20047;-75
2023/02/27 01:29:18;;;;;;;7.65;3.35;;;-0.10;99.90;;;;;;5034041;28;20045;-77
2023/02/27 01:31:43;;;;;;;9.00;3.58;;;-0.10;99.90;;;;;;5056090;28;20037;-75
2023/02/27 01:34:09;;;;;;;11.75;4.65;;;0.00;99.90;;;;;;5037583;28;20099;-76
2023/02/27 01:36:35;;;;;;;11.30;4.50;;;-0.10;99.90;;;;;;5032256;28;20117;-76
2023/02/27 01:39:01;;;;;;;9.93;3.70;;;-0.10;99.90;;;;;;5034728;28;20052;-76
2023/02/27 01:41:27;;;;;;;8.65;3.30;;;-0.10;99.90;;;;;;5031056;28;20531;-77
2023/02/27 01:44:09;;;;;;;10.18;3.08;;;-0.10;99.90;;;;;;5049990;28;20085;-76
2023/02/27 01:46:35;;;;;;;6.22;2.85;;;0.10;99.90;;;;;;5033184;28;20500;-76
2023/02/27 01:49:16;;;;;;;6.63;3.10;;;-0.10;99.90;;;;;;5047991;28;20394;-76
2023/02/27 01:51:53;;;;;;;7.88;3.30;;;-0.20;99.90;;;;;;5045254;28;20041;-76
2023/02/27 01:54:22;;;;;;;9.75;3.20;;;-0.10;99.90;;;;;;5035999;28;20045;-76
2023/02/27 01:56:49;;;;;;;6.68;2.75;;;-0.20;99.90;;;;;;5021826;28;20033;-75
2023/02/27 01:59:16;;;;;;;7.78;2.97;;;-0.10;99.90;;;;;;5039543;28;20385;-75
2023/02/27 02:01:41;;;;;;;5.43;2.92;;;-0.20;99.90;;;;;;5064016;28;20036;-77
2023/02/27 02:04:19;;;;;;;7.28;3.00;;;-0.20;99.90;;;;;;5062860;28;20044;-76
2023/02/27 02:06:48;;;;;;;9.75;3.20;;;-0.20;99.90;;;;;;5045253;28;20187;-76
2023/02/27 02:09:17;;;;;;;8.38;3.67;;;-0.20;99.90;;;;;;5051167;28;20044;-76
2023/02/27 02:11:43;;;;;;;11.38;3.20;;;-0.20;99.90;;;;;;5048346;28;20045;-76
2023/02/27 02:14:09;;;;;;;7.07;3.20;;;-0.20;99.90;;;;;;5062193;28;20040;-76
2023/02/27 02:17:06;;;;;;;6.97;2.80;;;-0.30;99.90;;;;;;5047833;28;20036;-76
2023/02/27 02:19:50;;;;;;;9.30;3.63;;;-0.30;99.90;;;;;;5042287;28;20106;-76
2023/02/27 02:22:54;;;;;;;7.18;2.65;;;-0.30;99.90;;;;;;5035916;28;20045;-77
2023/02/27 02:25:56;;;;;;;7.57;2.97;;;-0.30;99.90;;;;;;5044961;28;20557;-77
2023/02/27 02:28:27;;;;;;;5.95;2.55;;;-0.30;99.90;;;;;;5063680;28;20040;-77
2023/02/27 02:31:31;;;;;;;5.78;2.80;;;-0.30;99.90;;;;;;5059215;28;20048;-76
2023/02/27 02:34:07;;;;;;;10.13;2.78;;;-0.40;99.90;;;;;;5056927;28;20037;-76
2023/02/27 02:37:05;;;;;;;7.10;3.08;;;-0.40;99.90;;;;;;5037080;28;20076;-76
2023/02/27 02:39:45;;;;;;;7.88;2.95;;;-0.40;99.90;;;;;;5057027;28;20073;-76
2023/02/27 02:42:38;;;;;;;7.55;2.55;;;-0.40;99.90;;;;;;5060371;28;20090;-76
2023/02/27 02:45:11;;;;;;;7.57;2.45;;;-0.40;99.90;;;;;;5044835;28;20060;-76
2023/02/27 02:47:49;;;;;;;6.95;2.72;;;-0.40;99.90;;;;;;5045568;28;20123;-76
2023/02/27 02:50:26;;;;;;;7.35;2.47;;;-0.40;99.90;;;;;;5034249;28;20124;-76
2023/02/27 02:53:00;;;;;;;6.13;2.40;;;-0.50;99.90;;;;;;5043925;28;20045;-76
2023/02/27 02:55:52;;;;;;;6.45;2.47;;;-0.50;99.90;;;;;;5037286;28;20041;-76
2023/02/27 02:58:34;;;;;;;6.18;2.78;;;-0.50;99.90;;;;;;5033134;28;20059;-76
2023/02/27 03:01:13;;;;;;;11.38;3.25;;;-0.50;99.90;;;;;;5040546;28;20121;-77
2023/02/27 03:04:20;;;;;;;8.40;2.65;;;-0.50;99.90;;;;;;5029946;28;20408;-77
2023/02/27 03:06:51;;;;;;;7.95;3.03;;;-0.50;99.90;;;;;;5031502;28;20060;-77
2023/02/27 03:09:33;;;;;;;7.35;2.85;;;-0.50;99.90;;;;;;5045375;28;20045;-77
2023/02/27 03:12:01;;;;;;;9.17;2.87;;;-0.60;99.90;;;;;;5024285;28;20037;-76
2023/02/27 03:14:36;;;;;;;7.07;2.65;;;-0.60;99.90;;;;;;5025103;28;20127;-76
2023/02/27 03:17:07;;;;;;;9.05;2.65;;;-0.60;99.90;;;;;;5051112;28;20429;-76
2023/02/27 03:20:08;;;;;;;5.25;2.83;;;-0.60;99.90;;;;;;5050331;28;20427;-76
2023/02/27 03:22:40;;;;;;;9.40;2.90;;;-0.60;99.90;;;;;;5021391;28;20056;-76
2023/02/27 03:25:09;;;;;;;6.18;2.63;;;-0.70;99.90;;;;;;5059045;28;20119;-76
2023/02/27 03:27:42;;;;;;;5.35;2.60;;;-0.70;99.90;;;;;;5039858;28;20044;-76
2023/02/27 03:30:13;;;;;;;7.25;2.47;;;-0.70;99.90;;;;;;5046765;28;20051;-76
2023/02/27 03:32:46;;;;;;;8.20;3.00;;;-0.70;99.90;;;;;;5026996;28;20044;-76
2023/02/27 03:35:13;;;;;;;7.47;2.88;;;-0.70;99.90;;;;;;5045565;28;20041;-76
2023/02/27 03:37:50;;;;;;;6.43;2.70;;;-0.70;99.90;;;;;;5040194;28;20066;-76
2023/02/27 03:40:49;;;;;;;6.38;2.60;;;-0.70;99.90;;;;;;5050688;28;20087;-76
2023/02/27 03:43:52;;;;;;;6.30;2.70;;;-0.70;99.90;;;;;;5033910;28;20041;-77
2023/02/27 03:46:23;;;;;;;5.05;2.67;;;-0.70;99.90;;;;;;5033471;28;20524;-76
2023/02/27 03:48:49;;;;;;;8.05;3.13;;;-0.70;99.90;;;;;;5037973;28;20048;-77
2023/02/27 03:51:18;;;;;;;7.57;3.00;;;-0.70;99.90;;;;;;5056319;28;20040;-77
2023/02/27 03:53:46;;;;;;;8.93;2.85;;;-0.70;99.90;;;;;;5040409;28;20034;-77
2023/02/27 03:56:15;;;;;;;8.20;2.95;;;-0.70;99.90;;;;;;5044223;28;20079;-77
2023/02/27 03:58:41;;;;;;;7.35;2.60;;;-0.70;99.90;;;;;;5031170;28;20028;-76
2023/02/27 04:01:07;;;;;;;8.32;3.15;;;-0.70;99.90;;;;;;5036426;28;20224;-76
2023/02/27 04:03:38;;;;;;;6.95;2.90;;;-0.80;99.90;;;;;;5063754;28;20119;-76
2023/02/27 04:07:21;;;;;;;6.53;2.63;;;-0.80;99.90;;;;;;5047654;28;20489;-76
2023/02/27 04:09:06;;;;;;;5.13;2.53;;;-0.80;99.90;;;;;;5059512;28;20056;-76
2023/02/27 04:11:46;;;;;;;7.72;2.40;;;-0.90;99.90;;;;;;5053411;28;20037;-76
2023/02/27 04:14:37;;;;;;;6.55;2.70;;;-0.90;99.90;;;;;;5043859;28;20516;-76
2023/02/27 04:17:22;;;;;;;7.30;2.40;;;-0.90;99.90;;;;;;5061255;28;20033;-76
2023/02/27 04:20:03;;;;;;;6.18;2.80;;;-1.00;99.90;;;;;;5054087;28;20525;-76
2023/02/27 04:22:41;;;;;;;8.15;2.60;;;-0.90;99.90;;;;;;5042273;28;20041;-76
2023/02/27 04:25:21;;;;;;;6.18;2.63;;;-0.90;99.90;;;;;;5033736;28;20106;-76
2023/02/27 04:27:52;;;;;;;8.73;2.70;;;-1.00;99.90;;;;;;5042216;28;20049;-76
2023/02/27 04:30:28;;;;;;;6.30;2.75;;;-1.00;99.90;;;;;;5033660;28;20040;-76
2023/02/27 04:33:03;;;;;;;5.68;2.60;;;-1.00;99.90;;;;;;5028048;28;20051;-76
2023/02/27 04:35:37;;;;;;;7.13;2.58;;;-1.00;99.90;;;;;;5033719;28;20037;-76
2023/02/27 04:38:26;;;;;;;7.40;2.70;;;-1.00;99.90;;;;;;5045904;28;20094;-76
2023/02/27 04:40:58;;;;;;;6.07;2.40;;;-1.00;99.90;;;;;;5058942;28;20488;-76
2023/02/27 04:43:27;;;;;;;7.53;2.50;;;-1.00;99.90;;;;;;5034110;28;20036;-76
2023/02/27 04:45:55;;;;;;;7.15;2.53;;;-1.00;99.90;;;;;;5026215;28;20037;-76
2023/02/27 04:48:25;;;;;;;7.53;2.30;;;-1.00;99.90;;;;;;5043857;28;20154;-76
2023/02/27 04:50:56;;;;;;;6.50;2.38;;;-1.00;99.90;;;;;;5044541;28;20140;-76
2023/02/27 04:53:37;;;;;;;7.47;2.58;;;-1.00;99.90;;;;;;5061772;28;20072;-76
2023/02/27 04:56:09;;;;;;;4.78;2.33;;;-1.00;99.90;;;;;;5061390;28;20489;-76
2023/02/27 04:58:51;;;;;;;7.72;1.98;;;-1.10;99.90;;;;;;5042290;28;20033;-76
2023/02/27 05:01:23;;;;;;;6.50;2.35;;;-1.10;99.90;;;;;;5052064;28;20090;-79
2023/02/27 05:03:52;;;;;;;10.90;2.30;;;-1.10;99.90;;;;;;5023788;28;20044;-80
2023/02/27 05:06:22;;;;;;;4.63;1.77;;;-1.10;99.90;;;;;;5037524;28;20056;-76
2023/02/27 05:09:36;;;;;;;4.50;2.05;;;-1.10;99.90;;;;;;5061718;28;20044;-79
2023/02/27 05:12:10;;;;;;;4.43;2.10;;;-1.10;99.90;;;;;;5020349;28;20076;-79
2023/02/27 05:15:02;;;;;;;12.18;2.65;;;-1.10;99.90;;;;;;5016120;28;20040;-80
2023/02/27 05:17:33;;;;;;;7.97;2.25;;;-1.10;99.90;;;;;;5007886;28;20542;-79
2023/02/27 05:20:00;;;;;;;4.78;2.13;;;-1.10;99.90;;;;;;5047061;28;20588;-80
2023/02/27 05:22:40;;;;;;;7.07;2.53;;;-1.10;99.90;;;;;;5042654;28;20047;-80
2023/02/27 05:25:47;;;;;;;5.28;2.50;;;-1.20;99.90;;;;;;5049448;28;20048;-80
2023/02/27 05:28:23;;;;;;;6.60;2.38;;;-1.20;99.90;;;;;;5039850;28;20087;-80
2023/02/27 05:31:02;;;;;;;8.13;2.58;;;-1.20;99.90;;;;;;5049472;28;20111;-79
2023/02/27 05:33:50;;;;;;;7.15;2.40;;;-1.20;99.90;;;;;;5039021;28;20047;-79
2023/02/27 05:36:34;;;;;;;6.68;2.10;;;-1.20;99.90;;;;;;5053476;28;20040;-80
2023/02/27 05:39:05;;;;;;;7.45;2.40;;;-1.20;99.90;;;;;;5037398;28;20452;-79
2023/02/27 05:41:38;;;;;;;6.28;2.10;;;-1.20;99.90;;;;;;5040566;28;20516;-79
2023/02/27 05:44:12;;;;;;;;;;;-1.20;99.90;;;;;;5059703;28;20045;-79
2023/02/27 05:46:45;;;;;;;8.45;2.40;;;-1.30;99.90;;;;;;5046376;28;20399;-79
2023/02/27 05:49:54;;;;;;;5.20;2.20;;;-1.30;99.90;;;;;;5034670;28;20083;-79
2023/02/27 05:52:23;;;;;;;4.88;2.20;;;-1.20;99.90;;;;;;5033605;28;20098;-79
2023/02/27 05:55:04;;;;;;;5.43;2.63;;;-1.30;99.90;;;;;;5039798;28;20130;-79
2023/02/27 05:57:39;;;;;;;6.97;2.22;;;-1.30;99.90;;;;;;5038176;28;20056;-79
2023/02/27 06:00:12;;;;;;;6.28;2.45;;;-1.30;99.90;;;;;;5041716;28;20078;-79
2023/02/27 06:02:39;;;;;;;3.72;1.95;;;-1.30;99.90;;;;;;5038685;28;20041;-79
2023/02/27 06:05:05;;;;;;;4.45;2.20;;;-1.30;99.90;;;;;;5051494;28;20041;-79
2023/02/27 06:07:32;;;;;;;8.90;2.53;;;-1.30;99.90;;;;;;5033797;28;20028;-79
2023/02/27 06:09:58;;;;;;;11.40;2.97;;;-1.40;99.90;;;;;;5043517;28;20040;-79
2023/02/27 06:12:24;;;;;;;4.40;2.50;;;-1.40;99.90;;;;;;5045233;28;20082;-79
2023/02/27 06:14:50;;;;;;;6.63;2.25;;;-1.40;99.90;;;;;;5022863;28;20036;-79
2023/02/27 06:17:16;;;;;;;6.53;2.10;;;-1.30;99.90;;;;;;5034094;28;20044;-79
2023/02/27 06:19:42;;;;;;;11.48;2.63;;;-1.40;99.90;;;;;;5036471;28;20033;-79
2023/02/27 06:22:09;;;;;;;6.40;2.38;;;-1.40;99.90;;;;;;5060294;28;20040;-79
2023/02/27 06:24:35;;;;;;;5.78;2.30;;;-1.40;99.90;;;;;;5024098;28;20068;-79
2023/02/27 06:27:01;;;;;;;6.80;2.60;;;-1.40;99.90;;;;;;5034853;28;20505;-79
2023/02/27 06:29:26;;;;;;;10.60;3.15;;;-1.40;99.90;;;;;;5041658;28;20048;-79
2023/02/27 06:31:52;;;;;;;7.88;2.72;;;-1.50;99.90;;;;;;5033341;28;20033;-79
2023/02/27 06:34:18;;;;;;;4.82;2.20;;;-1.50;99.90;;;;;;5059521;28;20041;-80
2023/02/27 06:36:44;;;;;;;4.53;2.33;;;-1.50;99.90;;;;;;5034236;28;20037;-79
2023/02/27 06:39:09;;;;;;;7.22;2.40;;;-1.50;99.90;;;;;;5053068;28;20037;-79
2023/02/27 06:41:35;;;;;;;6.25;2.40;;;-1.50;99.90;;;;;;5055556;28;20497;-79
2023/02/27 06:44:01;;;;;;;7.75;2.78;;;-1.50;99.90;;;;;;5018997;28;20041;-79
2023/02/27 06:46:26;;;;;;;6.93;2.28;;;-1.50;99.90;;;;;;5057214;28;20213;-79
2023/02/27 06:48:52;;;;;;;6.88;3.17;;;-1.50;99.90;;;;;;5042902;28;20048;-79
2023/02/27 06:51:18;;;;;;;5.95;2.33;;;-1.50;99.90;;;;;;5066174;28;20382;-75
2023/02/27 06:53:43;;;;;;;7.03;2.40;;;-1.50;99.90;;;;;;5053746;28;20041;-76
2023/02/27 06:56:09;;;;;;;4.75;2.20;;;-1.50;99.90;;;;;;5043748;28;20037;-76
2023/02/27 06:58:35;;;;;;;4.78;2.03;;;-1.50;99.90;;;;;;5057619;28;20036;-76
2023/02/27 07:01:01;;;;;;;6.53;2.40;;;-1.50;99.90;;;;;;5026539;28;20804;-76
2023/02/27 07:03:27;;;;;;;4.68;2.35;;;-1.50;99.90;;;;;;5065216;28;20059;-76
2023/02/27 07:05:52;;;;;;;6.65;2.45;;;-1.50;99.90;;;;;;5029698;28;20045;-76
2023/02/27 07:08:18;;;;;;;5.55;2.13;;;-1.50;99.90;;;;;;5054345;28;20036;-76
2023/02/27 07:10:45;;;;;;;7.82;2.70;;;-1.50;99.90;;;;;;5035505;28;20045;-76
2023/02/27 07:13:15;;;;;;;10.90;2.53;;;-1.50;99.90;;;;;;5027117;28;20045;-76
2023/02/27 07:15:41;;;;;;;4.57;2.10;;;-1.50;99.90;;;;;;5034903;28;20037;-76
2023/02/27 07:18:07;;;;;;;6.53;2.72;;;-1.50;99.90;;;;;;5026605;28;20042;-76
2023/02/27 07:20:32;;;;;;;6.55;2.70;;;-1.40;99.90;;;;;;5053989;28;20033;-76
2023/02/27 07:22:58;;;;;;;8.23;2.50;;;-1.40;99.90;;;;;;5057596;28;20461;-76
2023/02/27 07:25:23;;;;;;;7.32;2.60;;;-1.40;99.90;;;;;;5054319;28;20041;-76
2023/02/27 07:27:49;;;;;;;5.22;2.72;;;-1.40;99.90;;;;;;5028220;28;20490;-76
2023/02/27 07:30:16;;;;;;;7.53;2.63;;;-1.40;99.90;;;;;;5059885;28;20033;-76
2023/02/27 07:32:42;;;;;;;7.15;2.70;;;-1.40;99.90;;;;;;5036320;28;20071;-76
2023/02/27 07:35:08;;;;;;;6.57;2.42;;;-1.30;99.90;;;;;;5041618;28;20496;-76
2023/02/27 07:37:34;;;;;;;7.55;2.38;;;-1.30;99.90;;;;;;5027718;28;20515;-76
2023/02/27 07:40:00;;;;;;;7.28;3.25;;;-1.20;99.90;;;;;;5025686;28;20037;-77
2023/02/27 07:42:26;;;;;;;7.10;2.90;;;-1.10;99.90;;;;;;5024656;28;20041;-77
2023/02/27 07:44:51;;;;;;;9.60;3.13;;;-1.10;99.90;;;;;;5045781;28;20040;-76
2023/02/27 07:47:17;;;;;;;8.90;2.70;;;-1.00;99.90;;;;;;5062318;28;20449;-76
2023/02/27 07:49:42;;;;;;;8.32;3.03;;;-0.90;99.90;;;;;;5039334;28;20083;-76
2023/02/27 07:52:10;;;;;;;6.65;3.00;;;-0.90;99.90;;;;;;5035908;28;20037;-76
2023/02/27 07:54:36;;;;;;;10.27;3.25;;;-0.80;99.90;;;;;;5066494;28;20115;-76
2023/02/27 07:57:03;;;;;;;8.20;3.03;;;-0.70;99.90;;;;;;5062350;28;20046;-76
2023/02/27 07:59:29;;;;;;;7.45;3.53;;;-0.60;99.90;;;;;;5047291;28;20040;-76
2023/02/27 08:01:54;;;;;;;6.07;2.97;;;-0.40;99.90;;;;;;5036508;28;20037;-77
2023/02/27 08:04:20;;;;;;;7.05;3.00;;;-0.30;99.90;;;;;;5047255;28;20049;-76
2023/02/27 08:06:45;;;;;;;4.80;2.97;;;-0.20;99.90;;;;;;5030298;28;20045;-76
2023/02/27 08:09:11;;;;;;;7.80;3.03;;;-0.10;99.90;;;;;;5033332;28;20076;-76
2023/02/27 08:11:37;;;;;;;8.73;2.80;;;0.00;99.90;;;;;;5032188;28;20045;-76
2023/02/27 08:14:03;;;;;;;12.68;3.30;;;0.10;99.90;;;;;;5047098;28;20116;-76
2023/02/27 08:16:29;;;;;;;9.93;3.65;;;0.20;99.90;;;;;;5059467;28;20037;-76
2023/02/27 08:18:55;;;;;;;13.23;4.35;;;0.30;99.90;;;;;;5044564;28;20496;-76
2023/02/27 08:21:21;;;;;;;8.63;3.67;;;0.40;99.90;;;;;;5057605;28;20044;-76
2023/02/27 08:23:46;;;;;;;11.38;3.55;;;0.50;99.90;;;;;;5034908;28;20051;-76
2023/02/27 08:26:12;;;;;;;10.95;3.80;;;0.60;99.90;;;;;;5063043;28;20044;-76
2023/02/27 08:28:38;;;;;;;8.30;3.22;;;0.70;99.90;;;;;;5036927;28;20044;-76
2023/02/27 08:31:05;;;;;;;9.05;3.25;;;0.70;99.90;;;;;;5033822;28;20033;-76
2023/02/27 08:33:32;;;;;;;8.27;3.28;;;0.80;99.90;;;;;;5054349;28;20049;-76
2023/02/27 08:35:58;;;;;;;7.93;3.95;;;0.90;99.90;;;;;;5031066;28;20093;-76
2023/02/27 08:38:23;;;;;;;7.03;3.10;;;1.00;99.90;;;;;;5052852;28;20560;-76
2023/02/27 08:40:52;;;;;;;8.93;3.45;;;1.00;99.90;;;;;;5061388;28;20047;-76
2023/02/27 08:43:21;;;;;;;8.48;3.97;;;1.10;99.90;;;;;;5058492;28;20490;-76
2023/02/27 08:45:48;;;;;;;9.57;4.28;;;1.20;99.90;;;;;;5031198;28;20080;-75
2023/02/27 08:48:14;;;;;;;7.97;3.67;;;1.30;99.90;;;;;;5064133;28;20039;-76
2023/02/27 08:50:41;;;;;;;10.60;3.97;;;1.30;99.90;;;;;;5058819;28;20065;-76
2023/02/27 08:53:07;;;;;;;12.88;4.43;;;1.40;99.90;;;;;;5037680;28;20052;-76
2023/02/27 08:55:32;;;;;;;9.40;4.63;;;1.40;99.90;;;;;;5035843;28;20056;-76
2023/02/27 08:57:58;;;;;;;12.80;5.38;;;1.50;99.90;;;;;;5048041;22;20048;-63
2023/02/27 09:00:24;;;;;;;10.00;5.03;;;1.60;99.90;;;;;;5043923;28;20032;-62
2023/02/27 09:02:49;;;;;;;12.77;5.50;;;1.70;99.90;;;;;;5050417;28;20090;-63
2023/02/27 09:05:15;;;;;;;10.88;5.57;;;1.70;99.90;;;;;;5048616;28;20067;-63
2023/02/27 09:07:41;;;;;;;15.05;5.10;;;1.80;99.90;;;;;;5051603;28;20040;-62
2023/02/27 09:10:08;;;;;;;10.00;4.50;;;1.90;99.90;;;;;;5044905;28;20040;-63
2023/02/27 09:12:34;;;;;;;9.32;4.55;;;2.00;99.90;;;;;;5015130;28;20041;-63
2023/02/27 09:15:04;;;;;;;13.02;4.82;;;2.00;99.90;;;;;;5047604;28;20041;-63
2023/02/27 09:17:30;;;;;;;9.23;5.25;;;2.10;99.90;;;;;;5031656;28;20431;-63
2023/02/27 09:19:56;;;;;;;10.30;4.32;;;2.20;99.90;;;;;;5009840;28;20049;-63
2023/02/27 09:22:22;;;;;;;10.90;4.00;;;2.20;99.90;;;;;;5037992;28;20554;-63
2023/02/27 09:24:47;;;;;;;9.68;3.85;;;2.30;99.90;;;;;;5041237;28;20044;-63
2023/02/27 09:27:13;;;;;;;11.25;3.30;;;2.40;99.90;;;;;;5034369;28;20045;-63
2023/02/27 09:29:39;;;;;;;12.20;3.97;;;2.40;99.90;;;;;;5046798;28;20049;-63
2023/02/27 09:32:05;;;;;;;10.05;3.35;;;2.50;99.90;;;;;;5049704;28;20040;-63
2023/02/27 09:34:31;;;;;;;9.00;3.50;;;2.60;99.90;;;;;;5029402;28;20037;-63
2023/02/27 09:37:00;;;;;;;8.52;3.20;;;2.60;99.90;;;;;;5033380;28;20390;-63
2023/02/27 09:39:27;;;;;;;10.38;3.28;;;2.70;99.90;;;;;;5047676;28;20083;-63
2023/02/27 09:41:58;;;;;;;7.57;3.13;;;2.70;99.90;;;;;;5040053;28;20025;-63
2023/02/27 09:44:43;;;;;;;10.30;2.90;;;2.80;99.90;;;;;;5016795;28;20403;-63
2023/02/27 09:47:15;;;;;;;6.82;2.67;;;3.00;99.90;;;;;;5045255;28;20056;-63
2023/02/27 09:50:17;;;;;;;8.15;2.80;;;2.90;99.90;;;;;;5041114;28;20442;-63
2023/02/27 09:52:43;;;;;;;12.25;2.50;;;3.20;99.90;;;;;;5024414;28;20258;-63
2023/02/27 09:55:20;;;;;;;8.93;2.83;;;3.30;99.90;;;;;;5045715;28;20070;-63
2023/02/27 09:57:56;;;;;;;10.52;2.42;;;3.40;99.90;;;;;;5044707;28;20041;-63
2023/02/27 10:00:29;;;;;;;6.90;2.38;;;3.50;99.90;;;;;;5043767;28;20037;-64
2023/02/27 10:03:33;;;;;;;9.10;2.30;;;3.60;99.90;;;;;;5036178;28;20059;-63
2023/02/27 10:06:23;;;;;;;8.55;1.95;;;3.70;99.90;;;;;;5016462;28;20049;-63
2023/02/27 10:09:01;;;;;;;4.75;1.90;;;3.80;99.90;;;;;;5044323;28;20071;-63
2023/02/27 10:12:03;;;;;;;8.40;1.95;;;3.80;99.90;;;;;;5032613;28;20087;-63
2023/02/27 10:14:37;;;;;;;6.10;1.75;;;3.80;99.90;;;;;;5012230;28;20045;-63
2023/02/27 10:17:10;;;;;;;5.80;1.70;;;3.80;99.90;;;;;;5040895;28;20127;-63
2023/02/27 10:19:37;;;;;;;6.70;1.88;;;3.90;99.90;;;;;;5031075;28;20040;-63
2023/02/27 10:22:07;;;;;;;10.40;1.90;;;3.90;99.90;;;;;;5022184;28;20087;-63
2023/02/27 10:24:50;;;;;;;6.45;2.20;;;3.90;99.90;;;;;;5044375;28;20037;-63
2023/02/27 10:27:19;;;;;;;6.72;1.80;;;3.90;99.90;;;;;;5045791;28;20402;-63
2023/02/27 10:29:45;;;;;;;6.10;1.90;;;4.00;99.90;;;;;;5036551;28;20033;-63
2023/02/27 10:32:31;;;;;;;5.97;1.55;;;4.10;99.90;;;;;;5044637;28;20041;-63
2023/02/27 10:35:29;;;;;;;4.65;1.55;;;4.10;99.90;;;;;;5030648;28;20067;-63
2023/02/27 10:38:01;;;;;;;7.47;1.83;;;4.10;99.90;;;;;;5000180;28;20127;-63
2023/02/27 10:40:28;;;;;;;6.53;2.15;;;4.20;99.90;;;;;;5045221;28;20041;-63
2023/02/27 10:42:58;;;;;;;6.40;1.95;;;4.30;99.90;;;;;;5040107;28;20053;-63
2023/02/27 10:45:24;;;;;;;4.18;1.77;;;4.40;99.90;;;;;;5030082;28;20499;-63
2023/02/27 10:47:50;;;;;;;5.80;1.50;;;4.50;99.90;;;;;;5021689;28;20040;-63
2023/02/27 10:50:23;;;;;;;5.05;1.88;;;4.70;99.90;;;;;;5042639;28;20155;-63
2023/02/27 10:52:50;;;;;;;3.95;1.38;;;4.90;99.90;;;;;;5038879;28;20048;-63
2023/02/27 10:55:21;;;;;;;6.45;1.50;;;5.10;99.90;;;;;;5040031;28;20041;-63
2023/02/27 10:57:47;;;;;;;4.97;1.52;;;5.20;99.90;;;;;;5045232;28;20192;-63
2023/02/27 11:00:27;;;;;;;5.13;1.58;;;5.40;99.90;;;;;;5042082;28;20077;-63
2023/02/27 11:02:53;;;;;;;7.53;1.77;;;5.40;99.90;;;;;;5029543;28;20464;-63
2023/02/27 11:05:28;;;;;;;3.35;1.58;;;5.50;99.90;;;;;;5047242;28;20495;-63
2023/02/27 11:07:55;;;;;;;11.23;1.85;;;5.60;99.90;;;;;;5028559;28;20131;-63
2023/02/27 11:10:27;;;;;;;7.72;1.70;;;5.70;99.90;;;;;;5042878;28;20081;-63
2023/02/27 11:13:01;;;;;;;7.40;1.80;;;5.70;99.90;;;;;;5045311;28;20045;-63
2023/02/27 11:15:30;;;;;;;6.50;1.63;;;6.00;99.90;;;;;;5039953;28;20396;-63
2023/02/27 11:18:35;;;;;;;5.38;1.50;;;6.20;99.90;;;;;;5052550;28;20047;-63
2023/02/27 11:21:21;;;;;;;5.07;1.20;;;6.30;99.90;;;;;;5040537;28;20037;-63
2023/02/27 11:23:54;;;;;;;4.32;1.40;;;6.50;99.90;;;;;;5042163;28;20053;-63
2023/02/27 11:26:28;;;;;;;4.22;1.33;;;6.70;99.90;;;;;;5023837;28;20042;-63
2023/02/27 11:29:10;;;;;;;3.72;1.35;;;6.80;99.90;;;;;;5040522;28;20097;-63
2023/02/27 11:31:38;;;;;;;4.63;1.20;;;6.90;99.90;;;;;;5025324;28;20120;-63
2023/02/27 11:34:07;;;;;;;4.80;1.17;;;6.90;99.90;;;;;;5046513;28;20080;-63
2023/02/27 11:36:48;;;;;;;3.40;1.10;;;7.00;99.90;;;;;;5050776;28;20033;-63
2023/02/27 11:39:24;;;;;;;3.95;1.40;;;7.10;99.90;;;;;;5027039;28;20095;-63
2023/02/27 11:41:50;;;;;;;3.05;1.20;;;7.10;99.90;;;;;;5041894;28;20036;-63
2023/02/27 11:44:21;;;;;;;3.55;1.50;;;7.00;99.90;;;;;;5044847;28;20514;-63
2023/02/27 11:46:47;;;;;;;2.78;1.25;;;7.00;99.90;;;;;;5030792;28;20045;-63
2023/02/27 11:49:21;;;;;;;4.65;1.27;;;7.10;99.90;;;;;;5041573;28;20041;-63
2023/02/27 11:51:58;;;;;;;6.07;1.42;;;7.20;99.90;;;;;;5047982;28;20040;-63
2023/02/27 11:54:38;;;;;;;2.80;1.15;;;7.30;99.90;;;;;;5034047;28;20056;-63
2023/02/27 11:57:24;;;;;;;1.95;0.90;;;7.40;99.90;;;;;;5024816;28;20083;-63
2023/02/27 12:00:12;;;;;;;3.28;1.27;;;7.30;99.90;;;;;;5037721;28;20037;-63
2023/02/27 12:02:54;;;;;;;2.90;1.10;;;7.20;99.90;;;;;;5029430;28;20044;-63
2023/02/27 12:05:21;;;;;;;2.38;1.00;;;7.20;99.90;;;;;;5039629;28;20037;-63
2023/02/27 12:07:57;;;;;;;2.03;0.85;;;7.10;99.90;;;;;;5027666;28;20038;-63
2023/02/27 12:10:38;;;;;;;2.65;0.90;;;7.10;99.90;;;;;;5028216;28;20537;-63
2023/02/27 12:13:15;;;;;;;4.43;0.90;;;7.10;99.90;;;;;;5021108;28;20051;-63
2023/02/27 12:15:57;;;;;;;2.83;1.00;;;7.10;99.90;;;;;;5030562;28;20094;-63
2023/02/27 12:18:25;;;;;;;2.60;0.93;;;7.10;99.90;;;;;;5044575;28;20033;-63
2023/02/27 12:20:54;;;;;;;1.60;0.90;;;7.10;99.90;;;;;;5042137;28;20037;-63
2023/02/27 12:23:32;;;;;;;1.98;1.10;;;7.00;99.90;;;;;;5043864;28;20056;-63
2023/02/27 12:26:13;;;;;;;2.08;1.00;;;7.00;99.90;;;;;;5020165;28;20052;-63
2023/02/27 12:29:19;;;;;;;2.40;1.10;;;6.90;99.90;;;;;;5027069;28;20033;-63
2023/02/27 12:31:59;;;;;;;2.17;0.90;;;6.90;99.90;;;;;;5016405;28;20057;-63
2023/02/27 12:34:33;;;;;;;1.88;0.90;;;6.70;99.90;;;;;;5024675;28;20107;-63
2023/02/27 12:37:14;;;;;;;1.70;0.88;;;6.70;99.90;;;;;;5029309;28;20041;-63
2023/02/27 12:39:43;;;;;;;3.22;1.08;;;6.70;99.90;;;;;;5016651;28;20087;-63
2023/02/27 12:42:21;;;;;;;2.70;1.00;;;6.60;99.90;;;;;;5029481;28;20073;-63
2023/02/27 12:45:02;;;;;;;2.60;1.00;;;6.60;99.90;;;;;;5021156;28;20038;-63
2023/02/27 12:47:46;;;;;;;2.85;1.00;;;6.60;99.90;;;;;;5040369;28;20082;-63
2023/02/27 12:50:18;;;;;;;2.58;1.17;;;6.60;99.90;;;;;;5038221;28;20038;-63
2023/02/27 12:52:52;;;;;;;2.43;0.87;;;6.60;99.90;;;;;;5023846;28;20045;-63
2023/02/27 12:55:43;;;;;;;4.90;1.08;;;6.70;99.90;;;;;;5047230;28;20131;-63
2023/02/27 12:58:29;;;;;;;4.15;1.92;;;6.80;99.90;;;;;;5043954;28;20090;-63
2023/02/27 13:01:00;;;;;;;3.20;1.48;;;7.00;99.90;;;;;;5026115;28;20523;-63
2023/02/27 13:03:34;;;;;;;3.88;1.20;;;7.10;99.90;;;;;;5031926;28;21180;-63
2023/02/27 13:06:11;;;;;;;2.97;1.05;;;7.10;99.90;;;;;;5040482;28;20553;-63
2023/02/27 13:09:03;;;;;;;2.28;1.10;;;7.20;99.90;;;;;;5027943;28;20055;-63
2023/02/27 13:11:42;;;;;;;2.60;1.00;;;7.20;99.90;;;;;;5030829;28;20131;-63
2023/02/27 13:14:20;;;;;;;2.70;1.10;;;7.20;99.90;;;;;;5033694;28;20053;-63
2023/02/27 13:16:53;;;;;;;3.10;0.88;;;7.20;99.90;;;;;;5036489;28;20515;-63
2023/02/27 13:19:25;;;;;;;4.85;1.10;;;7.30;99.90;;;;;;5036714;28;20082;-63